Prospero — LG5095 — position and weather

sailwx.info

Track history (hours):
 
Tides and Currents Weather Stations Pressure Air Temp Water Temp Dewpoint Dewpoint Depression Visibility Wind Speed Wind Dir Waves Ship Positions

Prospero

Last reported at 2018-Jun-14 18:12 UTC. Time now 2018-Jun-22 20:33 UTC.
Position N 58°21' E 011°14'.
Warning: this ship's position is 8 days out of date.

Length 10 m.

Type: Sailing vessel. MMSI: 258083750.

Date/timePositionNaut miles runAvg speedWind from/ knotsBaromVisibWave heightAir tempDewpointWater temp
2018-Jun-14 18:12N 58°21' E 011°14'1 6.1
2018-Jun-14 18:00N 58°21' E 011°16'37 6.7
2018-Jun-14 12:33N 57°46' E 011°39'0 8.2
2018-Jun-14 12:30N 57°46' E 011°39'4 8.2
2018-Jun-14 12:00N 57°42' E 011°40'4 7.7
2018-Jun-14 11:26N 57°38' E 011°41'3 7.4
2018-Jun-14 11:00N 57°35' E 011°39'164 3.3
2018-Jun-12 09:06N 54°53' E 010°50'1 5.0
2018-Jun-12 08:50N 54°51' E 010°49'2 5.1
2018-Jun-12 08:30N 54°50' E 010°48'  
Track history (hours):
 
Tides and Currents Weather Stations Pressure Air Temp Water Temp Dewpoint Dewpoint Depression Visibility Wind Speed Wind Dir Waves Ship Positions

Prospero

Last reported at 2018-Jun-14 18:12 UTC. Time now 2018-Jun-22 20:33 UTC.
Position N 58°21' E 011°14'.
Warning: this ship's position is 8 days out of date.

Length 10 m.

Type: Sailing vessel. MMSI: 258083750.

Date/timePositionNaut miles runAvg speedWind from/ knotsBaromVisibWave heightAir tempDewpointWater temp
2018-Jun-14 18:12N 58°21' E 011°14'1 6.1
2018-Jun-14 18:00N 58°21' E 011°16'37 6.7
2018-Jun-14 12:33N 57°46' E 011°39'0 8.2
2018-Jun-14 12:30N 57°46' E 011°39'4 8.2
2018-Jun-14 12:00N 57°42' E 011°40'4 7.7
2018-Jun-14 11:26N 57°38' E 011°41'3 7.4
2018-Jun-14 11:00N 57°35' E 011°39'164 3.3
2018-Jun-12 09:06N 54°53' E 010°50'1 5.0
2018-Jun-12 08:50N 54°51' E 010°49'2 5.1
2018-Jun-12 08:30N 54°50' E 010°48'  

Dump ship's entire track history